»·PEaware :: AAL9106 KSAN-KSMF

AAL9106 :: KSAN-KSMF

FLIGHT INFORMATION

Flight Status: Arrived
Operator:
American Airlines
More flights by this operator :: More flights under this callsign
Pilot: Ben F. (2808)
Aircraft: BOEING 727-200
(B722)
More flights by this aircraft type
Origin: KSAN San Diego Intl-Lindbergh
United States
Destination: KSMF Sacramento Intl
United States
More flights between these airports :: More routes between these airports
Route: +PEBLE6 SLI FIM J1 AVE J189 LIN SAC
File this flight plan on PilotEdge
Remarks:
Altitude:
(Current/Filed)
32,000ft
Speed:
(Current/Filed)
490kts
Departed: 03-Sep-18 08:27 AM
Arrived: 03-Sep-18 09:39 AM
Distance/Time
Traveled:
417nm/1:12
Distance/Time
To Go:
Arrived

Flight Plot

Page will automatically refresh every two minutes.

Flight plan parsing failed; only flown route is shown


Map Options




Map Legend


Flown Route
Filed Route
Departure Airport
Arrival Airport
Navaid (VOR, NDB)
Fix

Horizontal Profiles

Position Reports

Time Latitude Longitude Heading Altitude Ground
Speed
03-Sep-18 07:55 32.734140 -117.201795 178 29ft 0kts
03-Sep-18 07:56 32.734140 -117.201795 178 29ft 0kts
03-Sep-18 07:57 32.734140 -117.201795 178 29ft 0kts
03-Sep-18 07:58 32.734140 -117.201795 178 29ft 0kts
03-Sep-18 07:59 32.734140 -117.201795 178 29ft 0kts
03-Sep-18 08:00 32.734140 -117.201795 178 29ft 0kts
03-Sep-18 08:01 32.734140 -117.201795 178 29ft 0kts
03-Sep-18 08:02 32.734140 -117.201795 178 29ft 0kts
03-Sep-18 08:03 32.734140 -117.201795 178 29ft 0kts
03-Sep-18 08:04 32.734140 -117.201795 178 29ft 0kts
03-Sep-18 08:05 32.734140 -117.201795 178 29ft 0kts
03-Sep-18 08:06 32.734140 -117.201795 178 29ft 0kts
03-Sep-18 08:07 32.734140 -117.201795 178 29ft 0kts
03-Sep-18 08:08 32.734140 -117.201795 178 29ft 0kts
03-Sep-18 08:09 32.734140 -117.201795 178 29ft 0kts
03-Sep-18 08:10 32.734140 -117.201795 178 29ft 0kts
03-Sep-18 08:11 32.734140 -117.201795 178 29ft 0kts
03-Sep-18 08:12 32.734140 -117.201795 178 29ft 0kts
03-Sep-18 08:13 32.734140 -117.201795 178 29ft 0kts
03-Sep-18 08:14 32.734140 -117.201795 178 29ft 0kts
03-Sep-18 08:15 32.734302 -117.201800 178 29ft 1kts
03-Sep-18 08:16 32.734622 -117.202302 74 29ft 2kts
03-Sep-18 08:17 32.734339 -117.202611 15 29ft 0kts
03-Sep-18 08:18 32.734340 -117.202611 15 29ft 0kts
03-Sep-18 08:19 32.734340 -117.202611 15 29ft 0kts
03-Sep-18 08:20 32.734340 -117.202611 15 29ft 0kts
03-Sep-18 08:21 32.734925 -117.202413 15 29ft 9kts
03-Sep-18 08:22 32.734034 -117.195709 104 29ft 26kts
03-Sep-18 08:23 32.731975 -117.187365 105 29ft 26kts
03-Sep-18 08:24 32.729939 -117.179008 106 29ft 26kts
03-Sep-18 08:25 32.729514 -117.176738 75 29ft 0kts
03-Sep-18 08:26 32.729520 -117.176710 75 29ft 2kts
03-Sep-18 08:27 32.730358 -117.176455 286 29ft 0kts
03-Sep-18 08:28 32.738190 -117.207934 289 679ft 170kts
03-Sep-18 08:29 32.765405 -117.263098 305 2328ft 234kts
03-Sep-18 08:30 32.805794 -117.334234 305 5362ft 271kts
03-Sep-18 08:31 32.848258 -117.409619 305 8462ft 288kts
03-Sep-18 08:32 32.898003 -117.485746 326 11081ft 307kts
03-Sep-18 08:33 32.973713 -117.549834 325 12582ft 362kts
03-Sep-18 08:34 33.051501 -117.627838 305 15008ft 379kts
03-Sep-18 08:35 33.108290 -117.732544 304 17118ft 392kts
03-Sep-18 08:36 33.159187 -117.823331 319 18788ft 394kts
03-Sep-18 08:37 33.238618 -117.909462 321 20680ft 398kts
03-Sep-18 08:38 33.322832 -117.993356 335 22385ft 394kts
03-Sep-18 08:39 33.413975 -118.067871 328 23864ft 402kts
03-Sep-18 08:40 33.504407 -118.145632 328 25236ft 405kts
03-Sep-18 08:41 33.595004 -118.223315 328 26441ft 407kts
03-Sep-18 08:42 33.686189 -118.301678 327 27508ft 410kts
03-Sep-18 08:43 33.775664 -118.378775 327 28421ft 413kts
03-Sep-18 08:44 33.866969 -118.457660 326 29227ft 416kts
03-Sep-18 08:45 33.960114 -118.538355 326 30049ft 416kts
03-Sep-18 08:46 34.051634 -118.617844 325 31200ft 406kts
03-Sep-18 08:47 34.137469 -118.692606 324 31985ft 404kts
03-Sep-18 08:48 34.227820 -118.771541 324 31999ft 422kts
03-Sep-18 08:49 34.323922 -118.855697 324 31998ft 433kts
03-Sep-18 08:50 34.422380 -118.939313 325 31994ft 436kts
03-Sep-18 08:51 34.521762 -119.022803 325 31982ft 438kts
03-Sep-18 08:52 34.620432 -119.105884 325 32000ft 439kts
03-Sep-18 08:53 34.720885 -119.189412 325 32026ft 440kts
03-Sep-18 08:54 34.821448 -119.272888 325 31974ft 442kts
03-Sep-18 08:55 34.921862 -119.356720 325 31956ft 443kts
03-Sep-18 08:57 35.022412 -119.441809 324 31917ft 443kts
03-Sep-18 08:58 35.121025 -119.525678 324 31911ft 439kts
03-Sep-18 08:59 35.217351 -119.607825 324 31909ft 437kts
03-Sep-18 09:00 35.310454 -119.687642 323 31916ft 435kts
03-Sep-18 09:01 35.408310 -119.771953 323 31915ft 434kts
03-Sep-18 09:02 35.505203 -119.855689 323 31941ft 433kts
03-Sep-18 09:03 35.602640 -119.940167 323 31943ft 432kts
03-Sep-18 09:04 35.708798 -120.003325 338 31910ft 433kts
03-Sep-18 09:05 35.822190 -120.050446 338 31923ft 432kts
03-Sep-18 09:06 35.934683 -120.096761 338 31922ft 431kts
03-Sep-18 09:07 36.047860 -120.143443 338 31906ft 434kts
03-Sep-18 09:08 36.158400 -120.189163 338 31914ft 436kts
03-Sep-18 09:09 36.264865 -120.233335 338 31913ft 437kts
03-Sep-18 09:10 36.377677 -120.280274 338 31911ft 438kts
03-Sep-18 09:11 36.491322 -120.327707 338 31909ft 439kts
03-Sep-18 09:12 36.605370 -120.375454 338 31908ft 440kts
03-Sep-18 09:13 36.717478 -120.422586 339 30507ft 425kts
03-Sep-18 09:14 36.826160 -120.468387 340 28250ft 412kts
03-Sep-18 09:15 36.931646 -120.512953 341 25978ft 401kts
03-Sep-18 09:16 37.033958 -120.556231 341 23935ft 389kts
03-Sep-18 09:17 37.132330 -120.597974 340 23918ft 411kts
03-Sep-18 09:18 37.237865 -120.643017 340 23912ft 420kts
03-Sep-18 09:19 37.326217 -120.680779 339 23169ft 383kts
03-Sep-18 09:20 37.421865 -120.721784 340 21067ft 377kts
03-Sep-18 09:21 37.517430 -120.762842 340 19053ft 368kts
03-Sep-18 09:22 37.611537 -120.803377 340 17086ft 361kts
03-Sep-18 09:23 37.704252 -120.843419 341 15142ft 354kts
03-Sep-18 09:24 37.795291 -120.882841 341 13251ft 349kts
03-Sep-18 09:25 37.885542 -120.922015 341 11384ft 340kts
03-Sep-18 09:26 37.965343 -120.956740 340 9603ft 277kts
03-Sep-18 09:27 38.035236 -120.987250 340 8010ft 270kts
03-Sep-18 09:28 38.096064 -121.039870 313 7985ft 274kts
03-Sep-18 09:29 38.142168 -121.106248 309 7203ft 270kts
03-Sep-18 09:30 38.190204 -121.176592 309 5993ft 266kts
03-Sep-18 09:31 38.237311 -121.246052 309 5990ft 260kts
03-Sep-18 09:32 38.283848 -121.314805 309 5987ft 270kts
03-Sep-18 09:33 38.331906 -121.385917 309 5977ft 262kts
03-Sep-18 09:34 38.376848 -121.452682 312 5995ft 250kts
03-Sep-18 09:35 38.421970 -121.520033 306 5601ft 258kts
03-Sep-18 09:36 38.482665 -121.550296 353 4218ft 230kts
03-Sep-18 09:37 38.542579 -121.566812 344 2664ft 228kts
03-Sep-18 09:38 38.600618 -121.581148 358 1565ft 202kts
03-Sep-18 09:39 38.648144 -121.580798 0 728ft 144kts
03-Sep-18 09:40 38.687071 -121.580394 0 42ft 141kts
03-Sep-18 09:41 38.706825 -121.580345 314 35ft 16kts
03-Sep-18 09:42 38.706162 -121.582694 184 35ft 15kts
03-Sep-18 09:43 38.700798 -121.582799 181 35ft 22kts
03-Sep-18 09:44 38.696869 -121.584581 271 35ft 14kts
03-Sep-18 09:45 38.694573 -121.586160 177 35ft 11kts

Navigation Log

Ident Type
Flight plan parsing failed, navigation log unavailable